Map

Track Data

SID SEASON NUMBER BASIN SUBBASIN NAME ISO_TIME NATURE LAT LON WMO_WIND WMO_PRES WMO_AGENCY TRACK_TYPE DIST2LAND LANDFALL IFLAG USA_AGENCY USA_ATCF_ID USA_LAT USA_LON USA_RECORD USA_STATUS USA_WIND USA_PRES USA_SSHS USA_R34_NE USA_R34_SE USA_R34_SW USA_R34_NW USA_R50_NE USA_R50_SE USA_R50_SW USA_R50_NW USA_R64_NE USA_R64_SE USA_R64_SW USA_R64_NW USA_POCI USA_ROCI USA_RMW USA_EYE TOKYO_LAT TOKYO_LON TOKYO_GRADE TOKYO_WIND TOKYO_PRES TOKYO_R50_DIR TOKYO_R50_LONG TOKYO_R50_SHORT TOKYO_R30_DIR TOKYO_R30_LONG TOKYO_R30_SHORT TOKYO_LAND CMA_LAT CMA_LON CMA_CAT CMA_WIND CMA_PRES HKO_LAT HKO_LON HKO_CAT HKO_WIND HKO_PRES NEWDELHI_LAT NEWDELHI_LON NEWDELHI_GRADE NEWDELHI_WIND NEWDELHI_PRES NEWDELHI_CI NEWDELHI_DP NEWDELHI_POCI REUNION_LAT REUNION_LON REUNION_TYPE REUNION_WIND REUNION_PRES REUNION_TNUM REUNION_CI REUNION_RMW REUNION_R34_NE REUNION_R34_SE REUNION_R34_SW REUNION_R34_NW REUNION_R50_NE REUNION_R50_SE REUNION_R50_SW REUNION_R50_NW REUNION_R64_NE REUNION_R64_SE REUNION_R64_SW REUNION_R64_NW BOM_LAT BOM_LON BOM_TYPE BOM_WIND BOM_PRES BOM_TNUM BOM_CI BOM_RMW BOM_R34_NE BOM_R34_SE BOM_R34_SW BOM_R34_NW BOM_R50_NE BOM_R50_SE BOM_R50_SW BOM_R50_NW BOM_R64_NE BOM_R64_SE BOM_R64_SW BOM_R64_NW BOM_ROCI BOM_POCI BOM_EYE BOM_POS_METHOD BOM_PRES_METHOD NADI_LAT NADI_LON NADI_CAT NADI_WIND NADI_PRES WELLINGTON_LAT WELLINGTON_LON WELLINGTON_WIND WELLINGTON_PRES DS824_LAT DS824_LON DS824_STAGE DS824_WIND DS824_PRES TD9636_LAT TD9636_LON TD9636_STAGE TD9636_WIND TD9636_PRES TD9635_LAT TD9635_LON TD9635_WIND TD9635_PRES TD9635_ROCI NEUMANN_LAT NEUMANN_LON NEUMANN_CLASS NEUMANN_WIND NEUMANN_PRES MLC_LAT MLC_LON MLC_CLASS MLC_WIND MLC_PRES USA_GUST BOM_GUST BOM_GUST_PER REUNION_GUST REUNION_GUST_PER USA_SEAHGT USA_SEARAD_NE USA_SEARAD_SE USA_SEARAD_SW USA_SEARAD_NW STORM_SPEED STORM_DIR
1886091S12064 1886 3 SI MM NOT_NAMED 1886-03-31 18:00:00 NR -12.3000 64.3000 main 1121 1079 __________O___ -1 -12.3000 64.3000 7 11 259
1886091S12064 1886 3 SI MM NOT_NAMED 1886-03-31 21:00:00 NR -12.4058 63.7473 main 1073 1033 __________P___ -1 -12.4058 63.7473 7 11 259
1886091S12064 1886 3 SI MM NOT_NAMED 1886-04-01 00:00:00 NR -12.5088 63.2154 main 1033 1000 __________P___ -1 -12.5088 63.2154 7 10 259
1886091S12064 1886 3 SI MM NOT_NAMED 1886-04-01 03:00:00 NR -12.6073 62.7259 main 994 962 __________P___ -1 -12.6073 62.7259 7 9 258
1886091S12064 1886 3 SI MM NOT_NAMED 1886-04-01 06:00:00 NR -12.7000 62.3000 main 962 936 __________O___ -1 -12.7000 62.3000 7 8 257
1886091S12064 1886 3 SI MM NOT_NAMED 1886-04-01 09:00:00 NR -12.7858 61.9521 main 936 911 __________P___ -1 -12.7858 61.9521 7 6 255
1886091S12064 1886 3 SI MM NOT_NAMED 1886-04-01 12:00:00 NR -12.8644 61.6674 main 911 897 __________P___ -1 -12.8644 61.6674 7 5 254
1886091S12064 1886 3 SI MM NOT_NAMED 1886-04-01 15:00:00 NR -12.9359 61.4240 main 897 877 __________P___ -1 -12.9359 61.4240 7 5 253
1886091S12064 1886 3 SI MM NOT_NAMED 1886-04-01 18:00:00 NR -13.0000 61.2000 main 877 868 __________O___ -1 -13.0000 61.2000 7 4 257
1886091S12064 1886 3 SI MM NOT_NAMED 1886-04-01 21:00:00 NR -13.0324 60.9968 main 868 850 __________P___ -1 -13.0324 60.9968 7 4 261
1886091S12064 1886 3 SI MM NOT_NAMED 1886-04-02 00:00:00 NR -13.0619 60.8019 main 850 842 __________P___ -1 -13.0619 60.8019 7 4 259
1886091S12064 1886 3 SI MM NOT_NAMED 1886-04-02 03:00:00 NR -13.1104 60.5810 main 842 820 __________P___ -1 -13.1104 60.5810 7 5 254
1886091S12064 1886 3 SI MM NOT_NAMED 1886-04-02 06:00:00 NR -13.2000 60.3000 main 820 785 __________O___ -1 -13.2000 60.3000 7 7 249
1886091S12064 1886 3 SI MM NOT_NAMED 1886-04-02 09:00:00 NR -13.3613 59.9069 main 785 752 __________P___ -1 -13.3613 59.9069 7 9 246
1886091S12064 1886 3 SI MM NOT_NAMED 1886-04-02 12:00:00 NR -13.5629 59.4530 main 752 718 __________P___ -1 -13.5629 59.4530 7 10 245
1886091S12064 1886 3 SI MM NOT_NAMED 1886-04-02 15:00:00 NR -13.7831 58.9725 main 718 687 __________P___ -1 -13.7831 58.9725 7 10 245
1886091S12064 1886 3 SI MM NOT_NAMED 1886-04-02 18:00:00 NR -14.0000 58.5000 main 687 661 __________O___ -1 -14.0000 58.5000 7 10 245
1886091S12064 1886 3 SI MM NOT_NAMED 1886-04-02 21:00:00 NR -14.1944 58.0451 main 660 637 __________P___ -1 -14.1944 58.0451 7 9 246
1886091S12064 1886 3 SI MM NOT_NAMED 1886-04-03 00:00:00 NR -14.3801 57.6102 main 637 626 __________P___ -1 -14.3801 57.6102 7 9 246
1886091S12064 1886 3 SI MM NOT_NAMED 1886-04-03 03:00:00 NR -14.5508 57.2201 main 616 606 __________P___ -1 -14.5508 57.2201 7 8 245
1886091S12064 1886 3 SI MM NOT_NAMED 1886-04-03 06:00:00 NR -14.7000 56.9000 main 607 597 __________O___ -1 -14.7000 56.9000 7 6 243
1886091S12064 1886 3 SI MM NOT_NAMED 1886-04-03 09:00:00 NR -14.8252 56.6697 main 599 589 __________P___ -1 -14.8252 56.6697 7 4 239
1886091S12064 1886 3 SI MM NOT_NAMED 1886-04-03 12:00:00 NR -14.9295 56.5096 main 591 580 __________P___ -1 -14.9295 56.5096 7 3 234
1886091S12064 1886 3 SI MM NOT_NAMED 1886-04-03 15:00:00 NR -15.0191 56.3948 main 582 571 __________P___ -1 -15.0191 56.3948 7 3 230
1886091S12064 1886 3 SI MM NOT_NAMED 1886-04-03 18:00:00 NR -15.1000 56.3000 main 573 565 __________O___ -1 -15.1000 56.3000 7 2 232
1886091S12064 1886 3 SI MM NOT_NAMED 1886-04-03 21:00:00 NR -15.1699 56.1977 main 565 565 __________P___ -1 -15.1699 56.1977 7 2 234
1886091S12064 1886 3 SI MM NOT_NAMED 1886-04-04 00:00:00 NR -15.2349 56.1073 main 567 557 __________P___ -1 -15.2349 56.1073 7 2 232
1886091S12064 1886 3 SI MM NOT_NAMED 1886-04-04 03:00:00 NR -15.3074 56.0133 main 560 549 __________P___ -1 -15.3074 56.0133 7 3 230
1886091S12064 1886 3 SI MM NOT_NAMED 1886-04-04 06:00:00 NR -15.4000 55.9000 main 552 545 __________O___ -1 -15.4000 55.9000 7 3 229
1886091S12064 1886 3 SI MM NOT_NAMED 1886-04-04 09:00:00 NR -15.5326 55.7426 main 548 531 __________P___ -1 -15.5326 55.7426 7 4 228
1886091S12064 1886 3 SI MM NOT_NAMED 1886-04-04 12:00:00 NR -15.6851 55.5651 main 531 525 __________P___ -1 -15.6851 55.5651 7 5 228
1886091S12064 1886 3 SI MM NOT_NAMED 1886-04-04 15:00:00 NR -15.8450 55.3801 main 526 507 __________P___ -1 -15.8450 55.3801 7 5 228
1886091S12064 1886 3 SI MM NOT_NAMED 1886-04-04 18:00:00 NR -16.0000 55.2000 main 507 488 __________O___ -1 -16.0000 55.2000 7 4 229
1886091S12064 1886 3 SI MM NOT_NAMED 1886-04-04 21:00:00 NR -16.1281 55.0346 main 488 479 __________P___ -1 -16.1281 55.0346 7 4 231
1886091S12064 1886 3 SI MM NOT_NAMED 1886-04-05 00:00:00 NR -16.2500 54.8774 main 479 463 __________P___ -1 -16.2500 54.8774 7 4 230
1886091S12064 1886 3 SI MM NOT_NAMED 1886-04-05 03:00:00 NR -16.3719 54.7315 main 463 452 __________P___ -1 -16.3719 54.7315 7 4 227
1886091S12064 1886 3 SI MM NOT_NAMED 1886-04-05 06:00:00 NR -16.5000 54.6000 main 455 448 __________O___ -1 -16.5000 54.6000 7 4 221
1886091S12064 1886 3 SI MM NOT_NAMED 1886-04-05 09:00:00 NR -16.6387 54.4896 main 448 441 __________P___ -1 -16.6387 54.4896 7 3 215
1886091S12064 1886 3 SI MM NOT_NAMED 1886-04-05 12:00:00 NR -16.7849 54.3923 main 445 439 __________P___ -1 -16.7849 54.3923 7 4 211
1886091S12064 1886 3 SI MM NOT_NAMED 1886-04-05 15:00:00 NR -16.9387 54.2989 main 439 433 __________P___ -1 -16.9387 54.2989 7 4 210
1886091S12064 1886 3 SI MM NOT_NAMED 1886-04-05 18:00:00 NR -17.1000 54.2000 main 438 432 __________O___ -1 -17.1000 54.2000 7 4 211
1886091S12064 1886 3 SI MM NOT_NAMED 1886-04-05 21:00:00 NR -17.2678 54.0862 main 432 425 __________P___ -1 -17.2678 54.0862 7 4 213
1886091S12064 1886 3 SI MM NOT_NAMED 1886-04-06 00:00:00 NR -17.4425 53.9649 main 425 407 __________P___ -1 -17.4425 53.9649 7 4 214
1886091S12064 1886 3 SI MM NOT_NAMED 1886-04-06 03:00:00 NR -17.6209 53.8362 main 411 395 __________P___ -1 -17.6209 53.8362 7 4 215
1886091S12064 1886 3 SI MM NOT_NAMED 1886-04-06 06:00:00 NR -17.8000 53.7000 main 395 385 __________O___ -1 -17.8000 53.7000 7 4 219
1886091S12064 1886 3 SI MM NOT_NAMED 1886-04-06 09:00:00 NR -17.9547 53.5490 main 384 380 __________P___ -1 -17.9547 53.5490 7 4 223
1886091S12064 1886 3 SI MM NOT_NAMED 1886-04-06 12:00:00 NR -18.1126 53.3924 main 380 367 __________P___ -1 -18.1126 53.3924 7 4 221
1886091S12064 1886 3 SI MM NOT_NAMED 1886-04-06 15:00:00 NR -18.2891 53.2396 main 373 362 __________P___ -1 -18.2891 53.2396 7 5 216
1886091S12064 1886 3 SI MM NOT_NAMED 1886-04-06 18:00:00 NR -18.5000 53.1000 main 362 352 __________O___ -1 -18.5000 53.1000 7 5 208
1886091S12064 1886 3 SI MM NOT_NAMED 1886-04-06 21:00:00 NR -18.7600 52.9735 main 344 335 __________P___ -1 -18.7600 52.9735 7 6 202
1886091S12064 1886 3 SI MM NOT_NAMED 1886-04-07 00:00:00 NR -19.0550 52.8626 main 328 314 __________P___ -1 -19.0550 52.8626 7 6 198
1886091S12064 1886 3 SI MM NOT_NAMED 1886-04-07 03:00:00 NR -19.3725 52.7704 main 314 303 __________P___ -1 -19.3725 52.7704 7 7 193
1886091S12064 1886 3 SI MM NOT_NAMED 1886-04-07 06:00:00 NR -19.7000 52.7000 main 303 287 __________O___ -1 -19.7000 52.7000 7 7 189
1886091S12064 1886 3 SI MM NOT_NAMED 1886-04-07 09:00:00 NR -20.0137 52.6692 main 287 274 __________P___ -1 -20.0137 52.6692 7 6 184
1886091S12064 1886 3 SI MM NOT_NAMED 1886-04-07 12:00:00 NR -20.3349 52.6568 main 274 268 __________P___ -1 -20.3349 52.6568 7 7 181
1886091S12064 1886 3 SI MM NOT_NAMED 1886-04-07 15:00:00 NR -20.6637 52.6410 main 273 269 __________P___ -1 -20.6637 52.6410 7 7 185
1886091S12064 1886 3 SI MM NOT_NAMED 1886-04-07 18:00:00 NR -21.0000 52.6000 main 269 269 __________O___ -1 -21.0000 52.6000 7 7 198
1886091S12064 1886 3 SI MM NOT_NAMED 1886-04-07 21:00:00 NR -21.3427 52.4081 main 291 291 __________P___ -1 -21.3427 52.4081 7 8 208
1886091S12064 1886 3 SI MM NOT_NAMED 1886-04-08 00:00:00 NR -21.6920 52.2029 main 317 317 __________P___ -1 -21.6920 52.2029 7 8 204
1886091S12064 1886 3 SI MM NOT_NAMED 1886-04-08 03:00:00 NR -22.0453 52.0711 main 335 335 __________P___ -1 -22.0453 52.0711 7 7 188
1886091S12064 1886 3 SI MM NOT_NAMED 1886-04-08 06:00:00 NR -22.4000 52.1000 main 351 337 __________O___ -1 -22.4000 52.1000 7 8 154
1886091S12064 1886 3 SI MM NOT_NAMED 1886-04-08 09:00:00 NR -22.7637 52.4407 main 342 318 __________P___ -1 -22.7637 52.4407 7 11 133
1886091S12064 1886 3 SI MM NOT_NAMED 1886-04-08 12:00:00 NR -23.1249 52.9417 main 318 303 __________P___ -1 -23.1249 52.9417 7 12 126
1886091S12064 1886 3 SI MM NOT_NAMED 1886-04-08 15:00:00 NR -23.4733 53.4972 main 307 299 __________P___ -1 -23.4733 53.4972 7 12 125
1886091S12064 1886 3 SI MM NOT_NAMED 1886-04-08 18:00:00 NR -23.8000 54.0000 main 309 309 __________O___ -1 -23.8000 54.0000 7 10 128
1886091S12064 1886 3 SI MM NOT_NAMED 1886-04-08 21:00:00 NR -24.0998 54.3665 main 325 325 __________P___ -1 -24.0998 54.3665 7 8 136
1886091S12064 1886 3 SI MM NOT_NAMED 1886-04-09 00:00:00 NR -24.3782 54.6118 main 350 347 __________P___ -1 -24.3782 54.6118 7 7 146
1886091S12064 1886 3 SI MM NOT_NAMED 1886-04-09 03:00:00 NR -24.6426 54.7761 main 366 366 __________P___ -1 -24.6426 54.7761 7 6 153
1886091S12064 1886 3 SI MM NOT_NAMED 1886-04-09 06:00:00 NR -24.9000 54.9000 main 397 __________O___ -1 -24.9000 54.9000 7 6 157

About IBTrACS Database

This database is a web-friendly format of International Best Track Archive for Climate Stewardship (IBTrACS), a global best track data archive curated by NOAA dating back to 1842.

Updated: 2021-10-21